Time;durP1;ratioP1;P1;durP2;ratioP2;P2;SDS_P1;SDS_P2;PMS_P1;PMS_P2;Temp;Humidity;BMP_temperature;BMP_pressure;BME280_temperature;BME280_humidity;BME280_pressure;Samples;Min_cycle;Max_cycle;Signal;HPM_P1;HPM_P2
2022/04/03 00:02:13;;;;;;;8.68;2.45;;;-0.50;90.90;;;;;;5137194;27;20030;-45
2022/04/03 00:04:38;;;;;;;6.55;4.50;;;-0.60;87.90;;;;;;5151424;27;20075;-45
2022/04/03 00:07:05;;;;;;;6.25;3.53;;;-0.60;88.50;;;;;;5153120;27;20022;-46
2022/04/03 00:09:30;;;;;;;7.28;4.15;;;-0.60;88.20;;;;;;5141445;27;20456;-46
2022/04/03 00:11:56;;;;;;;6.35;3.95;;;-0.60;90.00;;;;;;5146442;27;20030;-46
2022/04/03 00:14:21;;;;;;;5.75;3.20;;;-0.60;91.00;;;;;;5152416;27;20260;-46
2022/04/03 00:16:47;;;;;;;6.07;3.30;;;-0.60;90.50;;;;;;5152453;27;20369;-46
2022/04/03 00:19:12;;;;;;;6.55;2.78;;;-0.60;91.70;;;;;;5151919;27;20144;-47
2022/04/03 00:21:38;;;;;;;5.35;2.88;;;-0.60;91.20;;;;;;5152538;27;20494;-46
2022/04/03 00:24:04;;;;;;;7.88;3.35;;;-0.70;91.40;;;;;;5152950;27;20306;-46
2022/04/03 00:26:30;;;;;;;4.50;2.85;;;-0.70;90.40;;;;;;5141836;27;20030;-46
2022/04/03 00:28:56;;;;;;;6.38;3.05;;;-0.80;91.00;;;;;;5151805;27;20022;-47
2022/04/03 00:31:22;;;;;;;6.70;3.33;;;-0.80;90.90;;;;;;5152322;27;20037;-46
2022/04/03 00:33:48;;;;;;;6.93;2.92;;;-0.80;91.50;;;;;;5152509;27;20152;-46
2022/04/03 00:36:14;;;;;;;5.97;2.78;;;-0.80;91.00;;;;;;5152377;27;20515;-46
2022/04/03 00:38:39;;;;;;;8.45;2.80;;;-0.80;92.00;;;;;;5151844;27;20103;-46
2022/04/03 00:41:06;;;;;;;5.13;2.70;;;-0.90;91.20;;;;;;5152191;27;20034;-46
2022/04/03 00:43:32;;;;;;;5.13;2.80;;;-0.90;91.60;;;;;;5152233;27;20015;-45
2022/04/03 00:46:00;;;;;;;7.97;3.25;;;-0.80;91.30;;;;;;5151928;27;20025;-46
2022/04/03 00:48:26;;;;;;;5.00;2.53;;;-0.80;91.60;;;;;;5150927;27;20026;-46
2022/04/03 00:50:53;;;;;;;4.35;2.85;;;-0.90;91.70;;;;;;5151826;27;20435;-46
2022/04/03 00:53:19;;;;;;;5.50;2.92;;;-0.90;91.80;;;;;;5152062;27;20019;-46
2022/04/03 00:55:45;;;;;;;6.78;2.95;;;-0.90;91.60;;;;;;5119442;27;20022;-47
2022/04/03 00:58:11;;;;;;;5.00;2.72;;;-0.90;91.60;;;;;;5135299;27;20030;-46
2022/04/03 01:00:37;;;;;;;6.53;2.72;;;-0.90;91.70;;;;;;5129618;27;20042;-46
2022/04/03 01:03:03;;;;;;;4.35;2.10;;;-0.90;91.00;;;;;;5143519;27;20287;-46
2022/04/03 01:05:29;;;;;;;5.90;2.60;;;-0.90;91.40;;;;;;5151884;27;20023;-46
2022/04/03 01:07:55;;;;;;;5.07;2.28;;;-0.90;90.50;;;;;;5150478;27;20026;-45
2022/04/03 01:10:21;;;;;;;5.65;2.90;;;-0.90;90.30;;;;;;5151176;27;20449;-46
2022/04/03 01:12:46;;;;;;;5.55;3.03;;;-1.00;90.60;;;;;;5150525;27;20113;-46
2022/04/03 01:15:16;;;;;;;5.32;2.70;;;-1.00;90.90;;;;;;5151920;27;20023;-46
2022/04/03 01:17:43;;;;;;;5.93;2.80;;;-1.00;90.80;;;;;;5151923;27;20022;-46
2022/04/03 01:20:09;;;;;;;5.07;3.00;;;-1.10;90.20;;;;;;5151025;27;20464;-45
2022/04/03 01:22:35;;;;;;;3.25;2.30;;;-1.10;90.30;;;;;;5151896;27;20483;-46
2022/04/03 01:25:01;;;;;;;7.05;2.67;;;-1.00;90.70;;;;;;5150856;27;20029;-47
2022/04/03 01:27:26;;;;;;;4.95;2.40;;;-1.00;90.60;;;;;;5151491;27;20467;-47
2022/04/03 01:29:53;;;;;;;4.50;2.30;;;-1.10;90.70;;;;;;5150930;27;20086;-46
2022/04/03 01:32:20;;;;;;;6.38;2.70;;;-1.10;90.80;;;;;;5135916;27;20141;-46
2022/04/03 01:34:45;;;;;;;5.10;2.20;;;-1.10;91.00;;;;;;5151386;27;20029;-46
2022/04/03 01:37:11;;;;;;;5.90;2.88;;;-1.10;92.50;;;;;;5151094;27;20288;-46
2022/04/03 01:39:36;;;;;;;6.93;3.03;;;-1.20;90.90;;;;;;5150442;27;20046;-47
2022/04/03 01:42:03;;;;;;;4.88;2.88;;;-1.20;91.20;;;;;;5151235;27;20600;-47
2022/04/03 01:44:28;;;;;;;4.70;2.75;;;-1.20;91.30;;;;;;5151112;27;20019;-46
2022/04/03 01:46:54;;;;;;;6.18;3.00;;;-1.20;92.20;;;;;;5150863;27;20063;-44
2022/04/03 01:49:19;;;;;;;5.13;2.65;;;-1.20;91.30;;;;;;5150392;27;20667;-44
2022/04/03 01:51:45;;;;;;;5.15;3.10;;;-1.20;91.60;;;;;;5151486;27;20098;-44
2022/04/03 01:54:11;;;;;;;4.95;2.80;;;-1.20;91.70;;;;;;5151119;27;20023;-44
2022/04/03 01:56:37;;;;;;;4.25;2.47;;;-1.20;90.90;;;;;;5144786;27;20027;-44
2022/04/03 01:59:03;;;;;;;4.70;3.13;;;-1.30;90.90;;;;;;5129663;27;20046;-45
2022/04/03 02:01:30;;;;;;;5.90;2.40;;;-1.30;91.10;;;;;;5135026;27;20030;-44
2022/04/03 02:03:56;;;;;;;4.80;2.38;;;-1.30;91.60;;;;;;5144705;27;20192;-44
2022/04/03 02:06:22;;;;;;;5.07;2.88;;;-1.40;91.40;;;;;;5151255;27;20097;-44
2022/04/03 02:08:47;;;;;;;5.35;3.05;;;-1.30;91.70;;;;;;5121624;27;20020;-44
2022/04/03 02:11:14;;;;;;;6.00;2.75;;;-1.30;92.60;;;;;;5114146;27;20055;-44
2022/04/03 02:13:40;;;;;;;5.80;3.72;;;-1.40;92.10;;;;;;5109344;28;20024;-45
2022/04/03 02:16:05;;;;;;;5.22;2.97;;;-1.40;94.00;;;;;;5110778;27;20011;-45
2022/04/03 02:18:31;;;;;;;5.43;2.38;;;-1.40;93.50;;;;;;5118258;27;20503;-45
2022/04/03 02:20:56;;;;;;;4.50;2.95;;;-1.50;94.60;;;;;;5124385;27;20455;-45
2022/04/03 02:23:22;;;;;;;6.15;2.90;;;-1.50;94.10;;;;;;5109630;28;20059;-45
2022/04/03 02:25:49;;;;;;;7.32;2.63;;;-1.50;93.80;;;;;;5108200;28;20168;-44
2022/04/03 02:28:15;;;;;;;4.75;2.30;;;-1.50;93.60;;;;;;5109427;28;20015;-45
2022/04/03 02:30:41;;;;;;;7.20;3.40;;;-1.50;93.80;;;;;;5115929;27;20106;-45
2022/04/03 02:33:06;;;;;;;5.22;2.80;;;-1.50;93.60;;;;;;5140709;27;20159;-44
2022/04/03 02:35:32;;;;;;;4.97;2.80;;;-1.50;95.00;;;;;;5150741;27;20031;-44
2022/04/03 02:37:58;;;;;;;5.88;2.65;;;-1.60;96.10;;;;;;5150627;27;20514;-45
2022/04/03 02:40:23;;;;;;;4.82;3.33;;;-1.60;95.40;;;;;;5149855;27;20034;-44
2022/04/03 02:42:50;;;;;;;5.90;3.20;;;-1.60;95.70;;;;;;5150283;27;20022;-46
2022/04/03 02:45:16;;;;;;;5.68;2.55;;;-1.60;94.60;;;;;;5150526;27;20019;-46
2022/04/03 02:47:49;;;;;;;5.60;2.65;;;-1.70;94.60;;;;;;5150651;27;20023;-45
2022/04/03 02:50:16;;;;;;;6.25;2.47;;;-1.70;95.00;;;;;;5149559;27;20023;-45
2022/04/03 02:52:42;;;;;;;7.47;2.95;;;-1.70;95.40;;;;;;5150328;27;20402;-46
2022/04/03 02:55:08;;;;;;;6.38;3.10;;;-1.70;95.00;;;;;;5150251;27;20605;-46
2022/04/03 02:57:34;;;;;;;6.40;2.75;;;-1.70;94.50;;;;;;5150210;27;20097;-46
2022/04/03 02:59:59;;;;;;;4.63;2.63;;;-1.70;94.20;;;;;;5149530;27;20030;-46
2022/04/03 03:02:25;;;;;;;3.75;2.53;;;-1.70;94.70;;;;;;5130288;27;20087;-46
2022/04/03 03:04:50;;;;;;;5.55;2.92;;;-1.70;95.30;;;;;;5141553;27;20110;-46
2022/04/03 03:07:16;;;;;;;5.15;2.72;;;-1.70;94.70;;;;;;5150294;27;20023;-46
2022/04/03 03:09:41;;;;;;;4.22;2.80;;;-1.70;94.30;;;;;;5149588;27;20068;-45
2022/04/03 03:12:07;;;;;;;4.00;2.88;;;-1.70;94.70;;;;;;5149990;27;20046;-46
2022/04/03 03:14:33;;;;;;;6.85;2.88;;;-1.70;93.80;;;;;;5150239;27;20094;-47
2022/04/03 03:17:01;;;;;;;5.38;2.60;;;-1.70;94.00;;;;;;5150240;27;20347;-45
2022/04/03 03:19:26;;;;;;;4.45;2.78;;;-1.70;95.20;;;;;;5149379;27;20041;-45
2022/04/03 03:21:52;;;;;;;4.40;2.72;;;-1.70;94.40;;;;;;5148644;27;20471;-45
2022/04/03 03:24:17;;;;;;;4.32;2.67;;;-1.70;94.40;;;;;;5150271;27;20271;-45
2022/04/03 03:26:43;;;;;;;3.78;2.67;;;-1.80;93.80;;;;;;5148579;27;20471;-46
2022/04/03 03:29:08;;;;;;;6.47;3.20;;;-1.70;94.30;;;;;;5149392;27;20019;-45
2022/04/03 03:31:34;;;;;;;3.83;2.67;;;-1.80;94.90;;;;;;5132853;27;20051;-46
2022/04/03 03:33:59;;;;;;;4.93;3.17;;;-1.80;94.10;;;;;;5141062;27;20023;-45
2022/04/03 03:36:25;;;;;;;3.97;2.50;;;-1.80;94.00;;;;;;5149628;27;20548;-45
2022/04/03 03:38:50;;;;;;;6.45;2.83;;;-1.80;93.80;;;;;;5149142;27;20062;-45
2022/04/03 03:41:16;;;;;;;6.90;3.38;;;-1.80;93.60;;;;;;5149703;27;20030;-46
2022/04/03 03:43:42;;;;;;;5.45;3.30;;;-1.80;93.50;;;;;;5149566;27;20041;-45
2022/04/03 03:46:08;;;;;;;4.15;2.78;;;-1.80;94.40;;;;;;5149359;27;20023;-45
2022/04/03 03:48:34;;;;;;;5.65;3.03;;;-1.70;93.90;;;;;;5150881;27;20019;-46
2022/04/03 03:51:00;;;;;;;7.50;3.33;;;-1.80;93.30;;;;;;5153225;27;20055;-45
2022/04/03 03:53:25;;;;;;;13.02;3.55;;;-1.70;94.10;;;;;;5153292;27;20376;-45
2022/04/03 03:55:51;;;;;;;5.55;2.88;;;-1.70;94.30;;;;;;5153417;27;20019;-45
2022/04/03 03:58:16;;;;;;;5.63;3.20;;;-1.70;93.70;;;;;;5153188;27;20105;-46
2022/04/03 04:00:42;;;;;;;4.47;2.78;;;-1.70;93.10;;;;;;5144776;27;20038;-45
2022/04/03 04:03:07;;;;;;;6.40;2.88;;;-1.60;93.80;;;;;;5136082;27;20495;-45
2022/04/03 04:05:33;;;;;;;6.75;3.08;;;-1.70;93.40;;;;;;5151996;27;20283;-45
2022/04/03 04:07:59;;;;;;;6.28;2.63;;;-1.70;93.00;;;;;;5153234;27;20093;-45
2022/04/03 04:10:25;;;;;;;5.18;3.20;;;-1.60;93.50;;;;;;5152470;27;20042;-46
2022/04/03 04:12:51;;;;;;;7.30;2.70;;;-1.50;93.80;;;;;;5133592;27;20030;-46
2022/04/03 04:15:16;;;;;;;6.72;3.15;;;-1.50;94.10;;;;;;5149802;27;20446;-45
2022/04/03 04:17:48;;;;;;;6.43;3.13;;;-1.40;93.50;;;;;;5153035;27;20395;-46
2022/04/03 04:20:16;;;;;;;6.55;2.90;;;-1.40;94.00;;;;;;5152412;27;20564;-46
2022/04/03 04:22:43;;;;;;;5.18;3.25;;;-1.40;93.50;;;;;;5153265;27;20101;-46
2022/04/03 04:25:11;;;;;;;6.88;2.70;;;-1.30;93.30;;;;;;5152768;27;20019;-46
2022/04/03 04:27:37;;;;;;;4.68;3.05;;;-1.30;94.20;;;;;;5152957;27;20026;-45
2022/04/03 04:30:04;;;;;;;6.15;3.30;;;-1.20;92.90;;;;;;5151933;27;20046;-47
2022/04/03 04:32:29;;;;;;;9.77;3.63;;;-1.20;93.20;;;;;;5151219;27;20023;-46
2022/04/03 04:34:55;;;;;;;7.47;3.28;;;-1.30;92.30;;;;;;5152559;27;20075;-45
2022/04/03 04:37:20;;;;;;;6.07;3.22;;;-1.30;93.10;;;;;;5152528;27;20387;-46
2022/04/03 04:39:46;;;;;;;6.53;3.78;;;-1.30;93.40;;;;;;5151866;27;20703;-46
2022/04/03 04:42:12;;;;;;;6.97;3.45;;;-1.20;93.70;;;;;;5139028;27;20031;-46
2022/04/03 04:44:39;;;;;;;5.82;3.17;;;-1.20;93.00;;;;;;5143661;27;20026;-46
2022/04/03 04:47:05;;;;;;;5.05;2.60;;;-1.20;92.90;;;;;;5141789;27;20058;-45
2022/04/03 04:49:30;;;;;;;6.40;3.28;;;-1.20;92.90;;;;;;5116453;27;20484;-45
2022/04/03 04:51:56;;;;;;;8.65;3.50;;;-1.20;94.00;;;;;;5111590;27;20020;-46
2022/04/03 04:54:21;;;;;;;6.90;3.55;;;-1.20;93.80;;;;;;5121840;27;20019;-45
2022/04/03 04:56:47;;;;;;;5.32;3.08;;;-1.20;93.90;;;;;;5129687;27;20030;-46
2022/04/03 04:59:12;;;;;;;7.65;3.97;;;-1.20;93.20;;;;;;5130009;27;20049;-46
2022/04/03 05:01:39;;;;;;;7.75;3.67;;;-1.10;93.50;;;;;;5141479;27;20129;-45
2022/04/03 05:04:04;;;;;;;5.28;3.35;;;-1.00;94.10;;;;;;5151877;27;20015;-47
2022/04/03 05:06:32;;;;;;;9.00;3.70;;;-1.00;93.30;;;;;;5145381;27;20010;-45
2022/04/03 05:08:58;;;;;;;4.72;3.20;;;-1.00;93.80;;;;;;5110260;28;20027;-45
2022/04/03 05:11:24;;;;;;;7.90;3.63;;;-0.90;92.60;;;;;;5119962;27;20389;-45
2022/04/03 05:13:50;;;;;;;7.07;3.47;;;-0.90;92.60;;;;;;5122325;27;20034;-45
2022/04/03 05:16:15;;;;;;;7.47;3.47;;;-0.80;93.40;;;;;;5121210;27;20400;-45
2022/04/03 05:18:41;;;;;;;6.28;4.03;;;-0.80;92.70;;;;;;5124059;27;20021;-45
2022/04/03 05:21:08;;;;;;;5.60;3.75;;;-0.80;93.20;;;;;;5127027;27;20034;-45
2022/04/03 05:23:33;;;;;;;5.53;3.30;;;-0.70;92.60;;;;;;5115857;27;20019;-46
2022/04/03 05:25:59;;;;;;;4.88;3.17;;;-0.70;92.60;;;;;;5123244;27;20030;-46
2022/04/03 05:28:26;;;;;;;6.40;3.70;;;-0.60;92.60;;;;;;5119767;27;20023;-45
2022/04/03 05:30:52;;;;;;;4.97;3.17;;;-0.60;92.30;;;;;;5120599;27;20003;-46
2022/04/03 05:33:19;;;;;;;8.07;3.28;;;-0.60;92.70;;;;;;5119911;27;20019;-46
2022/04/03 05:35:44;;;;;;;5.68;3.42;;;-0.60;92.50;;;;;;5119733;27;20518;-46
2022/04/03 05:38:10;;;;;;;11.00;3.83;;;-0.50;93.30;;;;;;5120008;27;20019;-47
2022/04/03 05:40:35;;;;;;;5.82;3.42;;;-0.50;92.60;;;;;;5123354;27;20039;-47
2022/04/03 05:43:01;;;;;;;6.97;3.70;;;-0.50;92.40;;;;;;5120700;27;20066;-48
2022/04/03 05:45:27;;;;;;;4.47;3.20;;;-0.40;92.80;;;;;;5117378;27;20434;-47
2022/04/03 05:47:53;;;;;;;5.57;3.90;;;-0.40;94.60;;;;;;5120848;27;20068;-47
2022/04/03 05:50:19;;;;;;;5.55;3.25;;;-0.20;93.80;;;;;;5122946;27;20037;-47
2022/04/03 05:52:47;;;;;;;8.18;3.38;;;-0.20;92.70;;;;;;5116583;27;20024;-47
2022/04/03 05:55:15;;;;;;;6.82;3.38;;;-0.10;92.50;;;;;;5119601;27;20025;-49
2022/04/03 05:57:41;;;;;;;6.07;3.08;;;0.00;92.00;;;;;;5120033;27;20023;-47
2022/04/03 06:00:12;;;;;;;7.15;3.75;;;0.10;91.90;;;;;;5113833;27;20303;-47
2022/04/03 06:02:57;;;;;;;7.20;3.75;;;0.10;91.40;;;;;;5113906;27;20508;-47
2022/04/03 06:05:28;;;;;;;5.68;2.85;;;0.10;91.70;;;;;;5142091;27;20023;-47
2022/04/03 06:07:53;;;;;;;;;;;0.20;92.00;;;;;;5151284;27;20106;-46
2022/04/03 06:10:21;;;;;;;5.70;3.00;;;0.20;91.60;;;;;;5148328;27;19986;-46
2022/04/03 06:13:02;;;;;;;7.93;3.50;;;0.20;91.30;;;;;;5150761;27;20023;-47
2022/04/03 06:15:33;;;;;;;5.47;3.05;;;0.20;91.50;;;;;;5150183;27;20023;-48
2022/04/03 06:17:59;;;;;;;4.53;3.20;;;0.10;91.60;;;;;;5150615;27;20102;-47
2022/04/03 06:20:25;;;;;;;5.43;3.15;;;0.10;92.00;;;;;;5138964;27;20039;-47
2022/04/03 06:22:50;;;;;;;6.82;3.63;;;0.00;91.80;;;;;;5129841;27;20492;-48
2022/04/03 06:25:16;;;;;;;7.13;3.30;;;-0.10;91.70;;;;;;5128109;27;20249;-47
2022/04/03 06:27:42;;;;;;;4.82;3.38;;;-0.10;92.30;;;;;;5128483;27;20019;-47
2022/04/03 06:30:09;;;;;;;4.47;3.42;;;-0.10;92.20;;;;;;5128910;27;20030;-49
2022/04/03 06:32:34;;;;;;;6.88;3.40;;;-0.10;92.60;;;;;;5125311;27;20032;-46
2022/04/03 06:35:00;;;;;;;7.78;3.45;;;0.00;92.20;;;;;;5141538;27;20019;-47
2022/04/03 06:37:25;;;;;;;5.68;3.50;;;0.00;92.20;;;;;;5149982;27;20023;-47
2022/04/03 06:39:51;;;;;;;8.20;3.63;;;0.10;91.90;;;;;;5148451;27;20095;-47
2022/04/03 06:42:17;;;;;;;8.18;3.45;;;0.20;91.90;;;;;;5150048;27;20364;-49
2022/04/03 06:44:42;;;;;;;7.72;3.55;;;0.20;91.00;;;;;;5148736;27;20075;-47
2022/04/03 06:47:09;;;;;;;4.50;3.22;;;0.30;91.40;;;;;;5149464;27;20060;-48
2022/04/03 06:49:35;;;;;;;7.57;3.92;;;0.30;91.20;;;;;;5149446;27;20026;-47
2022/04/03 06:52:01;;;;;;;7.63;3.30;;;0.40;91.30;;;;;;5149856;27;20335;-46
2022/04/03 06:54:27;;;;;;;6.38;3.60;;;0.50;91.10;;;;;;5150567;27;20479;-47
2022/04/03 06:56:53;;;;;;;7.50;4.32;;;0.60;91.20;;;;;;5149699;27;20117;-48
2022/04/03 06:59:19;;;;;;;5.88;4.30;;;0.60;90.80;;;;;;5149345;27;20050;-47
2022/04/03 07:01:44;;;;;;;6.90;4.30;;;0.60;90.80;;;;;;5148046;27;20066;-47
2022/04/03 07:04:10;;;;;;;7.07;3.63;;;0.60;91.10;;;;;;5132836;27;20032;-47
2022/04/03 07:06:35;;;;;;;5.15;3.90;;;0.60;91.20;;;;;;5149037;27;20297;-47
2022/04/03 07:09:01;;;;;;;8.15;3.75;;;0.70;91.80;;;;;;5118073;27;20075;-47
2022/04/03 07:11:26;;;;;;;6.88;3.95;;;0.70;91.60;;;;;;5119715;28;20058;-47
2022/04/03 07:13:52;;;;;;;7.43;3.92;;;0.80;91.70;;;;;;5108323;28;20011;-47
2022/04/03 07:16:17;;;;;;;9.35;3.92;;;0.90;91.80;;;;;;5108886;28;20023;-47
2022/04/03 07:18:43;;;;;;;6.50;4.45;;;1.00;91.70;;;;;;5107417;28;20383;-47
2022/04/03 07:21:08;;;;;;;7.78;4.35;;;1.00;91.90;;;;;;5108756;28;20042;-47
2022/04/03 07:23:34;;;;;;;9.35;4.47;;;1.20;91.70;;;;;;5111063;28;20011;-46
2022/04/03 07:25:59;;;;;;;10.93;4.32;;;1.30;91.90;;;;;;5112481;28;20031;-47
2022/04/03 07:28:25;;;;;;;10.80;4.55;;;1.40;91.50;;;;;;5112506;28;20023;-46
2022/04/03 07:30:51;;;;;;;7.70;4.80;;;1.70;91.40;;;;;;5111672;28;20032;-46
2022/04/03 07:33:20;;;;;;;9.13;4.43;;;2.30;90.10;;;;;;5129728;27;20029;-48
2022/04/03 07:35:46;;;;;;;8.83;4.77;;;2.60;89.40;;;;;;5145837;27;20023;-47
2022/04/03 07:38:12;;;;;;;6.47;4.93;;;2.70;87.80;;;;;;5153830;27;20106;-46
2022/04/03 07:40:37;;;;;;;7.60;4.25;;;2.90;87.30;;;;;;5152274;27;20106;-46
2022/04/03 07:43:03;;;;;;;8.75;4.57;;;2.90;87.50;;;;;;5153423;27;20018;-46
2022/04/03 07:45:28;;;;;;;10.20;4.25;;;2.80;88.10;;;;;;5152947;27;20034;-46
2022/04/03 07:47:54;;;;;;;5.35;4.18;;;2.60;88.60;;;;;;5153089;27;20076;-57
2022/04/03 07:50:20;;;;;;;8.95;4.85;;;2.70;88.80;;;;;;5152454;27;20023;-58
2022/04/03 07:52:47;;;;;;;9.50;4.70;;;2.80;90.20;;;;;;5153341;27;20162;-48
2022/04/03 07:55:13;;;;;;;7.60;4.65;;;2.80;90.10;;;;;;5153453;27;20058;-47
2022/04/03 07:57:39;;;;;;;7.07;4.50;;;2.90;90.20;;;;;;5153372;27;20050;-47
2022/04/03 08:00:11;;;;;;;6.97;4.57;;;3.20;90.30;;;;;;5152361;27;20065;-48
2022/04/03 08:02:37;;;;;;;9.20;5.18;;;3.80;89.70;;;;;;5141527;27;20030;-47
2022/04/03 08:05:03;;;;;;;8.18;4.13;;;4.60;86.60;;;;;;5144317;27;20596;-47
2022/04/03 08:07:39;;;;;;;8.57;4.47;;;5.30;83.60;;;;;;5153070;27;20061;-45
2022/04/03 08:10:09;;;;;;;7.97;3.95;;;5.90;81.50;;;;;;5150955;27;20027;-47
2022/04/03 08:12:35;;;;;;;6.65;4.13;;;6.30;79.10;;;;;;5152770;27;20099;-47
2022/04/03 08:15:02;;;;;;;9.55;4.10;;;6.60;79.00;;;;;;5143382;27;20035;-47
2022/04/03 08:17:28;;;;;;;6.35;3.65;;;6.60;79.70;;;;;;5120174;27;20470;-49
2022/04/03 08:19:53;;;;;;;5.68;4.15;;;6.70;79.30;;;;;;5125829;27;20062;-47
2022/04/03 08:22:19;;;;;;;6.72;4.07;;;7.20;78.40;;;;;;5111385;28;20461;-48
2022/04/03 08:24:44;;;;;;;7.32;4.03;;;8.10;75.50;;;;;;5111301;28;20069;-45
2022/04/03 08:27:12;;;;;;;7.97;3.65;;;9.10;73.50;;;;;;5111163;28;20023;-48
2022/04/03 08:29:38;;;;;;;6.93;3.88;;;10.10;70.60;;;;;;5110508;28;20098;-48
2022/04/03 08:32:03;;;;;;;4.55;3.42;;;11.40;66.00;;;;;;5110849;28;20107;-48
2022/04/03 08:34:29;;;;;;;6.43;3.50;;;11.70;60.90;;;;;;5138516;27;20030;-46
2022/04/03 08:36:55;;;;;;;5.40;3.33;;;12.70;60.40;;;;;;5150978;27;20079;-48
2022/04/03 08:39:20;;;;;;;5.43;3.53;;;13.20;57.20;;;;;;5150415;27;20027;-46
2022/04/03 08:41:46;;;;;;;3.72;2.88;;;14.10;56.70;;;;;;5150832;27;20499;-48
2022/04/03 08:44:12;;;;;;;5.05;2.90;;;14.90;54.00;;;;;;5149318;27;20079;-47
2022/04/03 08:46:44;;;;;;;3.60;2.53;;;15.20;51.20;;;;;;5150978;27;20479;-46
2022/04/03 08:49:12;;;;;;;4.13;2.50;;;16.30;50.20;;;;;;5151148;27;20199;-46
2022/04/03 08:51:39;;;;;;;5.05;2.95;;;17.00;48.50;;;;;;5152388;27;20022;-46
2022/04/03 08:54:06;;;;;;;6.82;2.80;;;16.30;47.90;;;;;;5152360;27;20033;-47
2022/04/03 08:56:31;;;;;;;5.85;2.88;;;15.00;50.00;;;;;;5152235;27;20042;-45
2022/04/03 08:58:58;;;;;;;4.13;3.10;;;13.30;52.50;;;;;;5151416;27;20034;-47
2022/04/03 09:01:25;;;;;;;6.18;2.90;;;12.40;53.90;;;;;;5150798;27;20033;-57
2022/04/03 09:03:51;;;;;;;5.10;2.60;;;11.40;55.70;;;;;;5136684;27;20495;-57
2022/04/03 09:06:19;;;;;;;2.70;2.50;;;10.50;58.00;;;;;;5148809;27;20272;-57
2022/04/03 09:08:46;;;;;;;3.70;2.60;;;10.00;60.80;;;;;;5149857;27;20581;-57
2022/04/03 09:11:30;;;;;;;3.47;2.28;;;9.70;61.70;;;;;;5131149;27;20031;-58
2022/04/03 09:13:56;;;;;;;4.25;3.10;;;9.90;62.10;;;;;;5131276;27;20029;-57
2022/04/03 09:16:38;;;;;;;9.82;2.95;;;9.70;62.80;;;;;;5131249;27;20019;-58
2022/04/03 09:19:04;;;;;;;5.18;3.08;;;9.60;62.50;;;;;;5130267;27;20019;-58
2022/04/03 09:21:32;;;;;;;4.40;2.85;;;9.90;63.30;;;;;;5131395;27;20015;-58
2022/04/03 09:24:07;;;;;;;3.63;2.03;;;10.60;60.40;;;;;;5129395;27;20109;-58
2022/04/03 09:26:34;;;;;;;2.88;2.17;;;10.70;59.90;;;;;;5131027;27;20030;-58
2022/04/03 09:29:10;;;;;;;3.05;1.92;;;10.90;58.10;;;;;;5130184;27;20045;-58
2022/04/03 09:31:36;;;;;;;5.60;2.67;;;12.30;59.00;;;;;;5130692;27;20023;-58
2022/04/03 09:34:06;;;;;;;4.90;2.47;;;13.50;54.90;;;;;;5135258;27;20657;-58
2022/04/03 09:36:33;;;;;;;4.32;2.33;;;15.00;52.00;;;;;;5150120;27;20030;-58
2022/04/03 09:39:07;;;;;;;5.55;2.20;;;15.40;50.30;;;;;;5150604;27;20019;-58
2022/04/03 09:41:33;;;;;;;3.22;2.40;;;14.70;51.60;;;;;;5151622;27;20533;-58
2022/04/03 09:43:59;;;;;;;3.78;2.33;;;14.30;51.70;;;;;;5149795;27;20101;-58
2022/04/03 09:46:29;;;;;;;6.18;2.20;;;13.30;53.40;;;;;;5149234;27;20142;-58
2022/04/03 09:48:55;;;;;;;5.80;2.08;;;13.10;53.20;;;;;;5150214;27;20508;-58
2022/04/03 09:51:24;;;;;;;4.60;2.53;;;12.50;53.80;;;;;;5151227;27;20026;-57
2022/04/03 09:53:52;;;;;;;21.83;2.10;;;11.70;54.70;;;;;;5150833;27;20011;-57
2022/04/03 09:56:23;;;;;;;3.53;2.05;;;11.00;56.50;;;;;;5150864;27;20070;-57
2022/04/03 09:58:51;;;;;;;5.95;1.92;;;10.80;58.40;;;;;;5150151;27;20027;-57
2022/04/03 10:01:27;;;;;;;4.28;2.20;;;9.90;60.00;;;;;;5151347;27;20113;-57
2022/04/03 10:03:54;;;;;;;2.97;2.10;;;9.40;60.50;;;;;;5137831;27;20034;-57
2022/04/03 10:06:21;;;;;;;4.88;1.98;;;9.20;62.10;;;;;;5148028;27;20022;-57
2022/04/03 10:08:47;;;;;;;2.83;1.92;;;9.00;63.00;;;;;;5148804;27;20039;-57
2022/04/03 10:11:14;;;;;;;2.25;1.90;;;8.90;62.80;;;;;;5150646;27;20083;-57
2022/04/03 10:13:40;;;;;;;3.50;2.08;;;8.70;63.90;;;;;;5148308;27;20019;-58
2022/04/03 10:16:06;;;;;;;5.95;2.42;;;8.60;64.10;;;;;;5141655;27;20031;-58
2022/04/03 10:18:33;;;;;;;4.05;2.20;;;8.70;63.60;;;;;;5150191;27;20279;-57
2022/04/03 10:20:59;;;;;;;3.20;1.95;;;8.80;64.20;;;;;;5138313;27;20051;-58
2022/04/03 10:23:27;;;;;;;4.20;1.77;;;8.70;63.30;;;;;;5119279;27;20019;-57
2022/04/03 10:25:55;;;;;;;5.60;1.85;;;8.50;63.70;;;;;;5119975;27;20511;-57
2022/04/03 10:28:22;;;;;;;3.45;1.92;;;8.40;64.00;;;;;;5118387;27;20016;-57
2022/04/03 10:30:58;;;;;;;1.95;1.60;;;8.30;63.80;;;;;;5118326;27;20465;-57
2022/04/03 10:33:24;;;;;;;3.67;2.03;;;8.30;64.20;;;;;;5118522;27;20072;-57
2022/04/03 10:36:17;;;;;;;4.30;2.35;;;8.00;66.50;;;;;;5118858;27;20071;-57
2022/04/03 10:38:44;;;;;;;4.72;2.30;;;7.90;67.40;;;;;;5117814;27;20015;-57
2022/04/03 10:41:28;;;;;;;6.22;2.70;;;7.50;69.80;;;;;;5110117;27;20495;-57
2022/04/03 10:44:14;;;;;;;4.78;2.47;;;7.20;71.80;;;;;;5119873;27;20542;-57
2022/04/03 10:47:01;;;;;;;3.58;2.45;;;7.10;72.40;;;;;;5141387;27;20021;-57
2022/04/03 10:49:31;;;;;;;5.47;1.90;;;6.90;73.30;;;;;;5137794;27;20028;-57
2022/04/03 10:52:02;;;;;;;6.80;2.20;;;6.90;73.00;;;;;;5117561;28;20020;-57
2022/04/03 10:54:32;;;;;;;6.85;2.08;;;6.80;75.30;;;;;;5118233;28;20051;-57
2022/04/03 10:57:35;;;;;;;6.55;2.50;;;6.50;76.60;;;;;;5119551;27;20095;-58
2022/04/03 11:00:12;;;;;;;5.07;3.28;;;6.60;78.70;;;;;;5121527;27;20034;-57
2022/04/03 11:02:39;;;;;;;3.30;2.17;;;6.60;78.90;;;;;;5123885;27;20046;-58
2022/04/03 11:05:22;;;;;;;3.92;1.63;;;6.70;78.60;;;;;;5130838;27;20025;-58
2022/04/03 11:07:49;;;;;;;3.63;1.98;;;6.70;78.50;;;;;;5123301;27;20027;-57
2022/04/03 11:10:16;;;;;;;5.00;2.15;;;6.80;78.30;;;;;;5120934;27;20015;-58
2022/04/03 11:12:54;;;;;;;3.65;2.20;;;6.90;79.70;;;;;;5123389;27;20361;-57
2022/04/03 11:15:20;;;;;;;5.45;2.03;;;7.20;77.10;;;;;;5122028;27;20118;-57
2022/04/03 11:17:54;;;;;;;3.72;2.28;;;7.70;77.60;;;;;;5122328;27;20156;-57
2022/04/03 11:20:31;;;;;;;4.57;1.77;;;8.30;74.30;;;;;;5120258;27;20020;-58
2022/04/03 11:22:58;;;;;;;8.05;1.45;;;9.00;71.80;;;;;;5121578;27;20080;-57
2022/04/03 11:25:24;;;;;;;6.47;2.00;;;9.10;71.10;;;;;;5124278;27;20024;-57
2022/04/03 11:27:51;;;;;;;5.10;1.92;;;8.90;69.80;;;;;;5121851;27;20506;-57
2022/04/03 11:30:18;;;;;;;3.55;1.90;;;9.10;72.60;;;;;;5123210;27;20035;-57
2022/04/03 11:32:45;;;;;;;3.17;1.80;;;9.00;70.70;;;;;;5124850;27;20043;-57
2022/04/03 11:35:11;;;;;;;5.13;1.73;;;8.80;73.20;;;;;;5129494;27;20047;-57
2022/04/03 11:37:36;;;;;;;5.05;1.70;;;8.80;72.50;;;;;;5123418;27;20100;-57
2022/04/03 11:40:06;;;;;;;4.60;1.60;;;9.80;72.30;;;;;;5121002;27;20169;-57
2022/04/03 11:42:31;;;;;;;3.33;1.58;;;10.30;68.10;;;;;;5118774;27;20043;-57
2022/04/03 11:44:56;;;;;;;6.57;1.92;;;10.80;68.50;;;;;;5122820;27;20108;-57
2022/04/03 11:47:27;;;;;;;3.63;1.73;;;10.90;65.80;;;;;;5120742;27;20356;-57
2022/04/03 11:50:19;;;;;;;4.32;1.48;;;10.50;65.10;;;;;;5121295;27;20018;-58
2022/04/03 11:52:45;;;;;;;5.07;1.90;;;9.70;69.20;;;;;;5117645;27;20419;-57
2022/04/03 11:55:11;;;;;;;5.97;1.77;;;10.10;70.70;;;;;;5122350;27;20019;-57
2022/04/03 11:57:38;;;;;;;6.35;2.42;;;11.00;67.70;;;;;;5121416;27;20391;-57
2022/04/03 12:00:05;;;;;;;6.45;2.30;;;11.00;66.10;;;;;;5123026;27;20117;-58
2022/04/03 12:02:30;;;;;;;5.93;1.90;;;12.00;66.20;;;;;;5129771;27;20404;-58
2022/04/03 12:04:57;;;;;;;4.80;2.20;;;12.40;64.50;;;;;;5130184;27;20042;-56
2022/04/03 12:07:22;;;;;;;5.10;1.85;;;12.40;63.80;;;;;;5132327;27;20019;-58
2022/04/03 12:09:48;;;;;;;5.40;1.83;;;12.60;61.40;;;;;;5131181;27;20448;-58
2022/04/03 12:12:13;;;;;;;3.80;2.00;;;12.50;60.00;;;;;;5115904;27;20270;-58
2022/04/03 12:14:44;;;;;;;3.75;2.17;;;11.80;63.20;;;;;;5142477;27;20018;-57
2022/04/03 12:17:11;;;;;;;6.07;1.83;;;12.80;61.30;;;;;;5152971;27;20113;-57
2022/04/03 12:19:39;;;;;;;6.70;1.98;;;12.40;60.40;;;;;;5151980;27;20077;-57
2022/04/03 12:22:08;;;;;;;4.35;1.92;;;12.90;60.40;;;;;;5151374;27;20477;-58
2022/04/03 12:24:35;;;;;;;6.07;2.45;;;12.90;59.80;;;;;;5152813;27;20037;-57
2022/04/03 12:27:04;;;;;;;5.45;2.30;;;12.60;60.20;;;;;;5152735;27;20279;-58
2022/04/03 12:29:31;;;;;;;4.97;2.17;;;12.70;59.30;;;;;;5152234;27;20071;-58
2022/04/03 12:32:21;;;;;;;4.97;2.00;;;12.90;60.30;;;;;;5152975;27;20014;-58
2022/04/03 12:34:49;;;;;;;5.18;2.08;;;13.10;62.20;;;;;;5141596;27;20130;-58
2022/04/03 12:37:16;;;;;;;3.38;1.73;;;12.90;62.00;;;;;;5151510;27;20376;-57
2022/04/03 12:39:46;;;;;;;6.05;1.75;;;12.60;62.60;;;;;;5150539;27;20558;-58
2022/04/03 12:42:11;;;;;;;3.15;1.80;;;11.60;64.00;;;;;;5140079;27;20545;-58
2022/04/03 12:45:00;;;;;;;5.05;1.70;;;10.90;66.50;;;;;;5142801;27;20026;-58
2022/04/03 12:47:32;;;;;;;2.65;1.67;;;10.40;67.60;;;;;;5137897;27;20053;-58
2022/04/03 12:50:06;;;;;;;3.53;1.80;;;9.80;69.50;;;;;;5152218;27;20094;-58
2022/04/03 12:52:47;;;;;;;3.97;1.73;;;9.50;69.60;;;;;;5152558;27;20210;-57